createdAt,value
2023-02-19T00:03:20.816Z,83.24
2023-02-19T00:08:23.824Z,83.31
2023-02-19T00:13:26.806Z,83.21
2023-02-19T00:18:29.663Z,83.01
2023-02-19T00:23:32.999Z,82.90
2023-02-19T00:28:36.881Z,82.79
2023-02-19T00:33:39.760Z,82.97
2023-02-19T00:38:44.686Z,83.15
2023-02-19T00:44:04.967Z,83.24
2023-02-19T00:49:12.378Z,83.33
2023-02-19T00:54:17.241Z,83.52
2023-02-19T00:59:20.466Z,83.56
2023-02-19T01:04:23.414Z,83.71
2023-02-19T01:09:26.474Z,84.06
2023-02-19T01:14:29.428Z,84.21
2023-02-19T01:19:33.081Z,84.26
2023-02-19T01:24:35.948Z,84.34
2023-02-19T01:29:38.936Z,84.25
2023-02-19T01:34:42.030Z,84.16
2023-02-19T01:39:44.897Z,83.97
2023-02-19T01:44:47.794Z,84.01
2023-02-19T01:49:56.925Z,83.93
2023-02-19T01:55:04.341Z,83.84
2023-02-19T02:00:12.434Z,83.99
2023-02-19T02:05:55.388Z,84.35
2023-02-19T02:10:58.353Z,84.46
2023-02-19T02:16:24.139Z,84.62
2023-02-19T02:22:19.554Z,84.46
2023-02-19T02:27:35.854Z,84.25
2023-02-19T02:32:53.712Z,84.50
2023-02-19T02:38:05.177Z,84.36
2023-02-19T02:43:08.134Z,84.39
2023-02-19T02:48:45.835Z,84.39
2023-02-19T02:54:15.066Z,84.29
2023-02-19T02:59:26.834Z,84.06
2023-02-19T03:05:11.793Z,84.07
2023-02-19T03:10:23.326Z,83.85
2023-02-19T03:15:59.585Z,83.84
2023-02-19T03:21:05.009Z,83.88
2023-02-19T03:26:11.742Z,83.74
2023-02-19T03:31:23.684Z,83.54
2023-02-19T03:36:37.111Z,83.68
2023-02-19T03:42:09.619Z,83.54
2023-02-19T03:47:29.468Z,83.51
2023-02-19T03:52:58.657Z,83.29
2023-02-19T03:58:15.085Z,83.23
2023-02-19T04:03:34.222Z,83.24
2023-02-19T04:08:38.953Z,83.24
2023-02-19T04:13:55.821Z,83.30
2023-02-19T04:19:10.399Z,83.19
2023-02-19T04:24:24.726Z,83.14
2023-02-19T04:29:27.779Z,83.15
2023-02-19T04:34:30.696Z,83.18
2023-02-19T04:39:33.918Z,83.08
2023-02-19T04:44:36.865Z,83.10
2023-02-19T04:49:39.793Z,83.13
2023-02-19T04:54:42.729Z,83.11
2023-02-19T04:59:47.070Z,83.04
2023-02-19T05:04:50.073Z,83.03
2023-02-19T05:09:53.063Z,83.07
2023-02-19T05:14:55.928Z,83.06
2023-02-19T05:19:58.781Z,83.08
2023-02-19T05:25:01.786Z,83.12
2023-02-19T05:30:05.046Z,83.18
2023-02-19T05:35:08.152Z,83.35
2023-02-19T05:40:11.197Z,83.26
2023-02-19T05:45:14.253Z,83.44
2023-02-19T05:50:17.437Z,83.49
2023-02-19T05:55:20.368Z,83.56
2023-02-19T06:00:27.678Z,83.54
2023-02-19T06:05:30.603Z,83.68
2023-02-19T06:10:33.698Z,83.67
2023-02-19T06:15:37.669Z,83.59
2023-02-19T06:20:40.588Z,83.50
2023-02-19T06:25:43.525Z,83.50
2023-02-19T06:30:46.545Z,83.50
2023-02-19T06:35:49.444Z,83.36
2023-02-19T06:40:52.348Z,83.45
2023-02-19T06:45:59.042Z,83.42
2023-02-19T06:51:02.625Z,83.36
2023-02-19T06:56:25.541Z,83.25
2023-02-19T07:01:32.042Z,83.20
2023-02-19T07:06:36.419Z,83.15
2023-02-19T07:11:40.405Z,83.18
2023-02-19T07:16:44.609Z,82.98
2023-02-19T07:21:47.604Z,82.62
2023-02-19T07:26:50.564Z,82.49
2023-02-19T07:31:53.578Z,82.35
2023-02-19T07:36:56.562Z,81.99
2023-02-19T07:41:59.579Z,81.86
2023-02-19T07:47:02.738Z,81.77
2023-02-19T07:52:05.827Z,81.92
2023-02-19T07:57:08.749Z,81.68
2023-02-19T08:02:41.038Z,81.45
2023-02-19T08:07:44.181Z,81.21
2023-02-19T08:13:19.025Z,81.38
2023-02-19T08:18:27.427Z,81.75
2023-02-19T08:23:30.518Z,81.79
2023-02-19T08:28:33.732Z,81.63
2023-02-19T08:33:37.982Z,81.24
2023-02-19T08:38:40.841Z,81.11
2023-02-19T08:43:44.575Z,80.96
2023-02-19T08:48:47.535Z,81.25
2023-02-19T08:53:50.539Z,81.64
2023-02-19T08:58:53.431Z,81.93
2023-02-19T09:03:56.547Z,82.00
2023-02-19T09:08:59.537Z,82.01
2023-02-19T09:14:02.662Z,81.66
2023-02-19T09:19:05.657Z,81.21
2023-02-19T09:24:10.479Z,80.38
2023-02-19T09:29:13.400Z,79.74
2023-02-19T09:34:16.514Z,79.12
2023-02-19T09:39:20.669Z,78.34
2023-02-19T09:44:35.416Z,77.42
2023-02-19T09:49:50.207Z,77.13
2023-02-19T09:54:57.851Z,76.94
2023-02-19T10:00:13.824Z,76.58
2023-02-19T10:05:17.385Z,75.92
2023-02-19T10:10:27.691Z,75.03
2023-02-19T10:15:41.352Z,74.25
2023-02-19T10:20:45.449Z,71.68
2023-02-19T10:25:57.223Z,71.68
2023-02-19T10:31:04.759Z,70.60
2023-02-19T10:36:31.742Z,70.13
2023-02-19T10:41:44.128Z,69.56
2023-02-19T10:46:52.827Z,67.13
2023-02-19T10:52:03.410Z,65.75
2023-02-19T10:57:15.480Z,65.64
2023-02-19T11:02:21.853Z,63.38
2023-02-19T11:07:25.080Z,63.24
2023-02-19T11:12:34.476Z,59.38
2023-02-19T11:17:37.520Z,60.60
2023-02-19T11:22:47.177Z,59.82
2023-02-19T11:28:24.007Z,59.54
2023-02-19T11:33:28.749Z,57.66
2023-02-19T11:38:45.730Z,57.78
2023-02-19T11:44:06.286Z,58.56
2023-02-19T11:49:20.275Z,57.72
2023-02-19T11:54:51.183Z,57.90
2023-02-19T12:00:30.265Z,57.92
2023-02-19T12:05:56.886Z,56.37
2023-02-19T12:11:59.823Z,56.13
2023-02-19T12:17:17.846Z,57.48
2023-02-19T12:22:57.187Z,55.92
2023-02-19T12:28:50.572Z,55.01
2023-02-19T12:34:18.733Z,55.31
2023-02-19T12:40:16.723Z,54.31
2023-02-19T12:45:55.828Z,52.72
2023-02-19T12:51:14.616Z,53.55
2023-02-19T12:56:26.595Z,54.17
2023-02-19T13:01:47.748Z,53.99
2023-02-19T13:07:01.724Z,52.35
2023-02-19T13:12:15.159Z,52.40
2023-02-19T13:17:42.891Z,53.94
2023-02-19T13:23:32.269Z,55.25
2023-02-19T13:29:34.428Z,55.48
2023-02-19T13:35:06.886Z,54.72
2023-02-19T13:40:39.354Z,53.75
2023-02-19T13:45:46.183Z,53.99
2023-02-19T13:50:50.631Z,54.76
2023-02-19T13:55:54.003Z,54.60
2023-02-19T14:00:57.021Z,54.15
2023-02-19T14:06:08.271Z,54.07
2023-02-19T14:11:14.624Z,54.33
2023-02-19T14:16:37.937Z,54.47
2023-02-19T14:21:43.509Z,54.65
2023-02-19T14:26:46.609Z,55.42
2023-02-19T14:31:49.781Z,55.26
2023-02-19T14:37:07.868Z,54.02
2023-02-19T14:42:32.902Z,52.93
2023-02-19T14:47:37.628Z,52.08
2023-02-19T14:52:50.159Z,51.53
2023-02-19T14:57:57.113Z,51.90
2023-02-19T15:03:00.360Z,52.76
2023-02-19T15:08:32.739Z,53.76
2023-02-19T15:13:36.429Z,55.04
2023-02-19T15:18:39.593Z,55.33
2023-02-19T15:23:43.409Z,56.03
2023-02-19T15:28:46.368Z,56.49
2023-02-19T15:33:52.475Z,55.51
2023-02-19T15:39:00.183Z,55.35
2023-02-19T15:44:29.042Z,55.67
2023-02-19T15:50:06.726Z,56.47
2023-02-19T15:55:09.639Z,56.41
2023-02-19T16:00:35.001Z,56.97
2023-02-19T16:05:40.112Z,56.67
2023-02-19T16:10:56.082Z,56.99
2023-02-19T16:16:30.641Z,56.65
2023-02-19T16:21:34.200Z,56.70
2023-02-19T16:26:45.672Z,57.10
2023-02-19T16:31:56.001Z,57.68
2023-02-19T16:36:59.036Z,58.19
2023-02-19T16:42:02.458Z,58.77
2023-02-19T16:47:15.541Z,59.64
2023-02-19T16:52:18.674Z,60.46
2023-02-19T16:57:22.015Z,61.22
2023-02-19T17:02:26.052Z,61.78
2023-02-19T17:07:29.149Z,62.00
2023-02-19T17:12:32.153Z,62.31
2023-02-19T17:17:35.371Z,62.55
2023-02-19T17:22:38.465Z,62.70
2023-02-19T17:27:42.024Z,63.03
2023-02-19T17:32:45.077Z,63.48
2023-02-19T17:37:48.156Z,63.85
2023-02-19T17:42:51.250Z,63.80
2023-02-19T17:47:54.546Z,62.97
2023-02-19T17:52:58.987Z,62.76
2023-02-19T17:58:01.988Z,62.51
2023-02-19T18:03:07.380Z,61.63
2023-02-19T18:08:10.668Z,61.47
2023-02-19T18:13:13.644Z,61.03
2023-02-19T18:18:16.718Z,60.92
2023-02-19T18:23:20.885Z,60.94
2023-02-19T18:28:23.897Z,61.09
2023-02-19T18:33:26.843Z,61.29
2023-02-19T18:38:29.955Z,61.71
2023-02-19T18:43:32.944Z,62.13
2023-02-19T18:48:36.036Z,62.53
2023-02-19T18:53:39.215Z,63.06
2023-02-19T18:58:42.265Z,63.46
2023-02-19T19:03:45.231Z,63.97
2023-02-19T19:08:48.387Z,64.24
2023-02-19T19:13:52.818Z,64.37
2023-02-19T19:18:56.974Z,64.53
2023-02-19T19:24:00.117Z,64.44
2023-02-19T19:29:03.282Z,64.60
2023-02-19T19:34:06.314Z,65.01
2023-02-19T19:39:09.456Z,65.04
2023-02-19T19:44:12.748Z,65.14
2023-02-19T19:49:22.078Z,65.21
2023-02-19T19:54:25.043Z,65.14
2023-02-19T19:59:28.393Z,65.31
2023-02-19T20:04:31.425Z,65.36
2023-02-19T20:09:34.506Z,65.31
2023-02-19T20:14:37.441Z,65.37
2023-02-19T20:19:40.606Z,65.50
2023-02-19T20:24:43.755Z,65.68
2023-02-19T20:29:47.543Z,65.97
2023-02-19T20:34:51.369Z,66.38
2023-02-19T20:39:54.333Z,66.92
2023-02-19T20:44:57.486Z,67.56
2023-02-19T20:50:00.888Z,67.93
2023-02-19T20:55:05.127Z,68.14
2023-02-19T21:00:09.671Z,68.39
2023-02-19T21:05:14.998Z,68.58
2023-02-19T21:10:20.022Z,68.86
2023-02-19T21:15:24.889Z,69.24
2023-02-19T21:20:29.107Z,70.54
2023-02-19T21:25:34.099Z,72.14
2023-02-19T21:30:38.163Z,73.83
2023-02-19T21:35:42.810Z,73.85
2023-02-19T21:40:52.476Z,75.13
2023-02-19T21:46:00.356Z,74.51
2023-02-19T21:51:06.382Z,74.49
2023-02-19T21:56:11.185Z,74.36
2023-02-19T22:01:14.554Z,74.71
2023-02-19T22:06:22.720Z,74.79
2023-02-19T22:11:26.592Z,74.89
2023-02-19T22:16:29.833Z,74.94
2023-02-19T22:21:33.342Z,75.17
2023-02-19T22:26:36.466Z,75.88
2023-02-19T22:31:39.531Z,75.86
2023-02-19T22:36:43.592Z,76.03
2023-02-19T22:41:47.802Z,76.34
2023-02-19T22:46:54.210Z,76.86
2023-02-19T22:52:05.766Z,76.85
2023-02-19T22:57:08.677Z,77.49
2023-02-19T23:02:11.716Z,78.70
2023-02-19T23:07:14.652Z,79.32
2023-02-19T23:12:18.267Z,79.55
2023-02-19T23:17:21.149Z,79.76
2023-02-19T23:22:24.205Z,79.90
2023-02-19T23:27:28.665Z,79.71
2023-02-19T23:32:31.616Z,80.25
2023-02-19T23:37:34.874Z,80.73
2023-02-19T23:42:37.858Z,81.18
2023-02-19T23:47:40.800Z,81.39
2023-02-19T23:52:43.811Z,82.56
2023-02-19T23:57:46.716Z,83.07
